sensor_id;sensor_type;location;lat;lon;timestamp;P1;durP1;ratioP1;P2;durP2;ratioP2
21424;SDS011;10873;51.132;16.848;2022-08-21T00:00:32;5.10;;;4.68;;
21424;SDS011;10873;51.132;16.848;2022-08-21T00:03:08;4.47;;;4.03;;
21424;SDS011;10873;51.132;16.848;2022-08-21T00:05:36;4.95;;;4.45;;
21424;SDS011;10873;51.132;16.848;2022-08-21T00:08:04;4.60;;;4.20;;
21424;SDS011;10873;51.132;16.848;2022-08-21T00:10:31;6.47;;;4.20;;
21424;SDS011;10873;51.132;16.848;2022-08-21T00:12:57;5.38;;;4.72;;
21424;SDS011;10873;51.132;16.848;2022-08-21T00:15:28;5.13;;;4.60;;
21424;SDS011;10873;51.132;16.848;2022-08-21T00:17:55;4.78;;;4.22;;
21424;SDS011;10873;51.132;16.848;2022-08-21T00:20:22;5.50;;;4.80;;
21424;SDS011;10873;51.132;16.848;2022-08-21T00:22:49;5.65;;;4.65;;
21424;SDS011;10873;51.132;16.848;2022-08-21T00:25:15;5.45;;;4.93;;
21424;SDS011;10873;51.132;16.848;2022-08-21T00:27:42;6.30;;;4.60;;
21424;SDS011;10873;51.132;16.848;2022-08-21T00:30:09;5.85;;;4.55;;
21424;SDS011;10873;51.132;16.848;2022-08-21T00:32:38;6.90;;;4.85;;
21424;SDS011;10873;51.132;16.848;2022-08-21T00:35:09;4.80;;;4.30;;
21424;SDS011;10873;51.132;16.848;2022-08-21T00:37:37;5.20;;;4.32;;
21424;SDS011;10873;51.132;16.848;2022-08-21T00:40:04;5.20;;;4.45;;
21424;SDS011;10873;51.132;16.848;2022-08-21T00:42:32;4.60;;;4.20;;
21424;SDS011;10873;51.132;16.848;2022-08-21T00:44:58;5.15;;;4.07;;
21424;SDS011;10873;51.132;16.848;2022-08-21T00:47:24;4.60;;;4.20;;
21424;SDS011;10873;51.132;16.848;2022-08-21T00:49:52;4.82;;;4.15;;
21424;SDS011;10873;51.132;16.848;2022-08-21T00:52:19;4.78;;;4.22;;
21424;SDS011;10873;51.132;16.848;2022-08-21T00:54:49;5.30;;;4.20;;
21424;SDS011;10873;51.132;16.848;2022-08-21T00:57:17;4.25;;;3.85;;
21424;SDS011;10873;51.132;16.848;2022-08-21T00:59:47;4.80;;;4.30;;
21424;SDS011;10873;51.132;16.848;2022-08-21T01:02:17;4.43;;;4.03;;
21424;SDS011;10873;51.132;16.848;2022-08-21T01:04:45;4.50;;;4.10;;
21424;SDS011;10873;51.132;16.848;2022-08-21T01:07:14;4.15;;;3.75;;
21424;SDS011;10873;51.132;16.848;2022-08-21T01:09:40;4.03;;;3.63;;
21424;SDS011;10873;51.132;16.848;2022-08-21T01:12:07;3.97;;;3.58;;
21424;SDS011;10873;51.132;16.848;2022-08-21T01:14:34;4.57;;;3.50;;
21424;SDS011;10873;51.132;16.848;2022-08-21T01:17:01;5.35;;;3.47;;
21424;SDS011;10873;51.132;16.848;2022-08-21T01:19:29;4.07;;;3.40;;
21424;SDS011;10873;51.132;16.848;2022-08-21T01:21:57;4.10;;;3.78;;
21424;SDS011;10873;51.132;16.848;2022-08-21T01:24:24;4.28;;;3.35;;
21424;SDS011;10873;51.132;16.848;2022-08-21T01:26:51;3.47;;;3.10;;
21424;SDS011;10873;51.132;16.848;2022-08-21T01:29:20;3.85;;;3.55;;
21424;SDS011;10873;51.132;16.848;2022-08-21T01:31:54;3.85;;;3.22;;
21424;SDS011;10873;51.132;16.848;2022-08-21T01:34:20;4.55;;;3.22;;
21424;SDS011;10873;51.132;16.848;2022-08-21T01:36:46;3.90;;;3.50;;
21424;SDS011;10873;51.132;16.848;2022-08-21T01:39:14;3.35;;;3.05;;
21424;SDS011;10873;51.132;16.848;2022-08-21T01:41:42;3.47;;;3.03;;
21424;SDS011;10873;51.132;16.848;2022-08-21T01:44:08;3.75;;;3.25;;
21424;SDS011;10873;51.132;16.848;2022-08-21T01:46:34;4.03;;;3.42;;
21424;SDS011;10873;51.132;16.848;2022-08-21T01:49:00;3.33;;;2.70;;
21424;SDS011;10873;51.132;16.848;2022-08-21T01:51:27;3.30;;;2.90;;
21424;SDS011;10873;51.132;16.848;2022-08-21T01:53:53;3.20;;;2.90;;
21424;SDS011;10873;51.132;16.848;2022-08-21T01:56:20;3.33;;;3.03;;
21424;SDS011;10873;51.132;16.848;2022-08-21T01:58:47;3.10;;;2.78;;
21424;SDS011;10873;51.132;16.848;2022-08-21T02:01:13;3.08;;;2.85;;
21424;SDS011;10873;51.132;16.848;2022-08-21T02:03:40;3.42;;;3.00;;
21424;SDS011;10873;51.132;16.848;2022-08-21T02:06:06;3.28;;;2.97;;
21424;SDS011;10873;51.132;16.848;2022-08-21T02:08:37;3.55;;;2.90;;
21424;SDS011;10873;51.132;16.848;2022-08-21T02:11:03;2.83;;;2.63;;
21424;SDS011;10873;51.132;16.848;2022-08-21T02:13:31;4.13;;;2.70;;
21424;SDS011;10873;51.132;16.848;2022-08-21T02:15:57;3.03;;;2.58;;
21424;SDS011;10873;51.132;16.848;2022-08-21T02:18:23;2.85;;;2.65;;
21424;SDS011;10873;51.132;16.848;2022-08-21T02:20:49;3.75;;;2.83;;
21424;SDS011;10873;51.132;16.848;2022-08-21T02:23:16;2.42;;;2.22;;
21424;SDS011;10873;51.132;16.848;2022-08-21T02:25:42;2.63;;;2.42;;
21424;SDS011;10873;51.132;16.848;2022-08-21T02:28:10;2.50;;;2.30;;
21424;SDS011;10873;51.132;16.848;2022-08-21T02:30:40;3.20;;;2.72;;
21424;SDS011;10873;51.132;16.848;2022-08-21T02:33:10;2.70;;;2.50;;
21424;SDS011;10873;51.132;16.848;2022-08-21T02:35:37;2.85;;;2.65;;
21424;SDS011;10873;51.132;16.848;2022-08-21T02:38:07;2.92;;;2.35;;
21424;SDS011;10873;51.132;16.848;2022-08-21T02:40:36;2.60;;;2.40;;
21424;SDS011;10873;51.132;16.848;2022-08-21T02:43:04;2.90;;;2.60;;
21424;SDS011;10873;51.132;16.848;2022-08-21T02:45:31;2.60;;;2.40;;
21424;SDS011;10873;51.132;16.848;2022-08-21T02:48:00;2.60;;;2.40;;
21424;SDS011;10873;51.132;16.848;2022-08-21T02:50:29;2.40;;;2.20;;
21424;SDS011;10873;51.132;16.848;2022-08-21T02:52:56;2.60;;;2.40;;
21424;SDS011;10873;51.132;16.848;2022-08-21T02:55:23;3.13;;;2.60;;
21424;SDS011;10873;51.132;16.848;2022-08-21T02:57:51;2.85;;;2.55;;
21424;SDS011;10873;51.132;16.848;2022-08-21T03:00:19;3.05;;;2.60;;
21424;SDS011;10873;51.132;16.848;2022-08-21T03:02:46;3.25;;;2.30;;
21424;SDS011;10873;51.132;16.848;2022-08-21T03:05:14;2.35;;;2.15;;
21424;SDS011;10873;51.132;16.848;2022-08-21T03:07:41;3.42;;;2.10;;
21424;SDS011;10873;51.132;16.848;2022-08-21T03:10:08;2.03;;;1.92;;
21424;SDS011;10873;51.132;16.848;2022-08-21T03:12:35;2.28;;;2.08;;
21424;SDS011;10873;51.132;16.848;2022-08-21T03:15:02;2.20;;;2.00;;
21424;SDS011;10873;51.132;16.848;2022-08-21T03:17:29;1.90;;;1.80;;
21424;SDS011;10873;51.132;16.848;2022-08-21T03:19:55;2.03;;;1.80;;
21424;SDS011;10873;51.132;16.848;2022-08-21T03:22:23;2.28;;;2.08;;
21424;SDS011;10873;51.132;16.848;2022-08-21T03:24:49;2.10;;;1.90;;
21424;SDS011;10873;51.132;16.848;2022-08-21T03:27:16;1.80;;;1.70;;
21424;SDS011;10873;51.132;16.848;2022-08-21T03:29:42;2.92;;;2.03;;
21424;SDS011;10873;51.132;16.848;2022-08-21T03:32:09;1.88;;;1.70;;
21424;SDS011;10873;51.132;16.848;2022-08-21T03:34:37;2.13;;;1.92;;
21424;SDS011;10873;51.132;16.848;2022-08-21T03:37:05;2.05;;;1.85;;
21424;SDS011;10873;51.132;16.848;2022-08-21T03:39:35;1.63;;;1.52;;
21424;SDS011;10873;51.132;16.848;2022-08-21T03:42:03;2.20;;;1.98;;
21424;SDS011;10873;51.132;16.848;2022-08-21T03:44:32;1.92;;;1.60;;
21424;SDS011;10873;51.132;16.848;2022-08-21T03:47:01;1.73;;;1.63;;
21424;SDS011;10873;51.132;16.848;2022-08-21T03:49:28;3.95;;;1.65;;
21424;SDS011;10873;51.132;16.848;2022-08-21T03:51:54;5.40;;;1.50;;
21424;SDS011;10873;51.132;16.848;2022-08-21T03:54:21;2.00;;;1.90;;
21424;SDS011;10873;51.132;16.848;2022-08-21T03:56:48;1.70;;;1.60;;
21424;SDS011;10873;51.132;16.848;2022-08-21T03:59:14;5.05;;;1.75;;
21424;SDS011;10873;51.132;16.848;2022-08-21T04:01:50;5.55;;;1.70;;
21424;SDS011;10873;51.132;16.848;2022-08-21T04:04:17;1.70;;;1.60;;
21424;SDS011;10873;51.132;16.848;2022-08-21T04:06:44;9.07;;;1.73;;
21424;SDS011;10873;51.132;16.848;2022-08-21T04:09:11;2.13;;;1.60;;
21424;SDS011;10873;51.132;16.848;2022-08-21T04:11:37;2.15;;;1.50;;
21424;SDS011;10873;51.132;16.848;2022-08-21T04:14:05;2.78;;;1.55;;
21424;SDS011;10873;51.132;16.848;2022-08-21T04:16:31;2.88;;;1.50;;
21424;SDS011;10873;51.132;16.848;2022-08-21T04:18:58;3.63;;;1.70;;
21424;SDS011;10873;51.132;16.848;2022-08-21T04:21:24;1.75;;;1.60;;
21424;SDS011;10873;51.132;16.848;2022-08-21T04:23:53;5.72;;;1.55;;
21424;SDS011;10873;51.132;16.848;2022-08-21T04:26:20;2.00;;;1.45;;
21424;SDS011;10873;51.132;16.848;2022-08-21T04:28:47;3.90;;;2.20;;
21424;SDS011;10873;51.132;16.848;2022-08-21T04:31:16;1.63;;;1.40;;
21424;SDS011;10873;51.132;16.848;2022-08-21T04:33:43;1.75;;;1.40;;
21424;SDS011;10873;51.132;16.848;2022-08-21T04:36:12;2.67;;;1.50;;
21424;SDS011;10873;51.132;16.848;2022-08-21T04:38:38;2.92;;;1.30;;
21424;SDS011;10873;51.132;16.848;2022-08-21T04:41:05;1.40;;;1.30;;
21424;SDS011;10873;51.132;16.848;2022-08-21T04:43:32;1.50;;;1.20;;
21424;SDS011;10873;51.132;16.848;2022-08-21T04:45:58;3.85;;;1.40;;
21424;SDS011;10873;51.132;16.848;2022-08-21T04:48:27;1.98;;;1.63;;
21424;SDS011;10873;51.132;16.848;2022-08-21T04:50:56;1.67;;;1.38;;
21424;SDS011;10873;51.132;16.848;2022-08-21T04:53:28;2.67;;;1.27;;
21424;SDS011;10873;51.132;16.848;2022-08-21T04:56:00;1.50;;;1.40;;
21424;SDS011;10873;51.132;16.848;2022-08-21T04:58:30;4.28;;;1.60;;
21424;SDS011;10873;51.132;16.848;2022-08-21T05:00:58;2.05;;;1.25;;
21424;SDS011;10873;51.132;16.848;2022-08-21T05:03:28;1.48;;;1.38;;
21424;SDS011;10873;51.132;16.848;2022-08-21T05:05:56;1.33;;;1.23;;
21424;SDS011;10873;51.132;16.848;2022-08-21T05:08:23;3.10;;;1.55;;
21424;SDS011;10873;51.132;16.848;2022-08-21T05:10:52;2.75;;;1.38;;
21424;SDS011;10873;51.132;16.848;2022-08-21T05:13:19;1.33;;;1.23;;
21424;SDS011;10873;51.132;16.848;2022-08-21T05:15:45;1.70;;;1.60;;
21424;SDS011;10873;51.132;16.848;2022-08-21T05:18:12;1.80;;;1.40;;
21424;SDS011;10873;51.132;16.848;2022-08-21T05:20:39;2.83;;;1.40;;
21424;SDS011;10873;51.132;16.848;2022-08-21T05:23:06;1.48;;;1.38;;
21424;SDS011;10873;51.132;16.848;2022-08-21T05:25:33;1.98;;;1.73;;
21424;SDS011;10873;51.132;16.848;2022-08-21T05:27:59;1.40;;;1.30;;
21424;SDS011;10873;51.132;16.848;2022-08-21T05:30:25;1.50;;;1.40;;
21424;SDS011;10873;51.132;16.848;2022-08-21T05:32:55;2.85;;;1.40;;
21424;SDS011;10873;51.132;16.848;2022-08-21T05:35:23;2.58;;;1.80;;
21424;SDS011;10873;51.132;16.848;2022-08-21T05:37:51;1.30;;;1.20;;
21424;SDS011;10873;51.132;16.848;2022-08-21T05:40:17;1.70;;;1.60;;
21424;SDS011;10873;51.132;16.848;2022-08-21T05:42:43;1.95;;;1.60;;
21424;SDS011;10873;51.132;16.848;2022-08-21T05:45:10;1.95;;;1.50;;
21424;SDS011;10873;51.132;16.848;2022-08-21T05:47:36;1.50;;;1.40;;
21424;SDS011;10873;51.132;16.848;2022-08-21T05:50:03;1.55;;;1.45;;
21424;SDS011;10873;51.132;16.848;2022-08-21T05:52:30;1.88;;;1.38;;
21424;SDS011;10873;51.132;16.848;2022-08-21T05:54:57;4.82;;;1.45;;
21424;SDS011;10873;51.132;16.848;2022-08-21T05:57:23;3.78;;;1.48;;
21424;SDS011;10873;51.132;16.848;2022-08-21T05:59:50;3.70;;;1.70;;
21424;SDS011;10873;51.132;16.848;2022-08-21T06:02:17;20.15;;;3.90;;
21424;SDS011;10873;51.132;16.848;2022-08-21T06:04:43;11.20;;;2.75;;
21424;SDS011;10873;51.132;16.848;2022-08-21T06:07:09;4.20;;;1.42;;
21424;SDS011;10873;51.132;16.848;2022-08-21T06:09:36;3.53;;;1.80;;
21424;SDS011;10873;51.132;16.848;2022-08-21T06:12:05;6.63;;;1.67;;
21424;SDS011;10873;51.132;16.848;2022-08-21T06:14:33;9.45;;;5.10;;
21424;SDS011;10873;51.132;16.848;2022-08-21T06:17:01;25.38;;;16.30;;
21424;SDS011;10873;51.132;16.848;2022-08-21T06:19:28;48.95;;;35.95;;
21424;SDS011;10873;51.132;16.848;2022-08-21T06:21:54;37.95;;;25.15;;
21424;SDS011;10873;51.132;16.848;2022-08-21T06:24:21;31.95;;;22.23;;
21424;SDS011;10873;51.132;16.848;2022-08-21T06:26:47;12.73;;;9.30;;
21424;SDS011;10873;51.132;16.848;2022-08-21T06:29:15;11.50;;;4.95;;
21424;SDS011;10873;51.132;16.848;2022-08-21T06:31:42;4.45;;;3.05;;
21424;SDS011;10873;51.132;16.848;2022-08-21T06:34:09;3.35;;;2.60;;
21424;SDS011;10873;51.132;16.848;2022-08-21T06:36:36;3.58;;;2.28;;
21424;SDS011;10873;51.132;16.848;2022-08-21T06:39:02;2.30;;;1.92;;
21424;SDS011;10873;51.132;16.848;2022-08-21T06:41:29;2.88;;;2.15;;
21424;SDS011;10873;51.132;16.848;2022-08-21T06:43:56;5.07;;;2.30;;
21424;SDS011;10873;51.132;16.848;2022-08-21T06:46:24;3.03;;;2.00;;
21424;SDS011;10873;51.132;16.848;2022-08-21T06:48:52;5.18;;;2.30;;
21424;SDS011;10873;51.132;16.848;2022-08-21T06:51:18;2.95;;;1.95;;
21424;SDS011;10873;51.132;16.848;2022-08-21T06:53:44;3.95;;;2.28;;
21424;SDS011;10873;51.132;16.848;2022-08-21T06:56:11;2.85;;;1.80;;
21424;SDS011;10873;51.132;16.848;2022-08-21T06:58:37;3.45;;;2.20;;
21424;SDS011;10873;51.132;16.848;2022-08-21T07:01:03;2.70;;;2.10;;
21424;SDS011;10873;51.132;16.848;2022-08-21T07:03:33;4.40;;;2.30;;
21424;SDS011;10873;51.132;16.848;2022-08-21T07:06:02;2.92;;;2.13;;
21424;SDS011;10873;51.132;16.848;2022-08-21T07:08:30;5.80;;;2.20;;
21424;SDS011;10873;51.132;16.848;2022-08-21T07:10:58;3.55;;;2.22;;
21424;SDS011;10873;51.132;16.848;2022-08-21T07:13:26;4.68;;;2.20;;
21424;SDS011;10873;51.132;16.848;2022-08-21T07:15:53;4.05;;;1.77;;
21424;SDS011;10873;51.132;16.848;2022-08-21T07:18:19;6.22;;;2.40;;
21424;SDS011;10873;51.132;16.848;2022-08-21T07:20:47;3.40;;;1.95;;
21424;SDS011;10873;51.132;16.848;2022-08-21T07:23:16;4.85;;;2.00;;
21424;SDS011;10873;51.132;16.848;2022-08-21T07:25:47;4.30;;;1.73;;
21424;SDS011;10873;51.132;16.848;2022-08-21T07:28:13;3.85;;;1.83;;
21424;SDS011;10873;51.132;16.848;2022-08-21T07:30:39;2.90;;;2.15;;
21424;SDS011;10873;51.132;16.848;2022-08-21T07:33:05;3.38;;;1.90;;
21424;SDS011;10873;51.132;16.848;2022-08-21T07:35:31;6.38;;;2.10;;
21424;SDS011;10873;51.132;16.848;2022-08-21T07:38:00;5.00;;;2.00;;
21424;SDS011;10873;51.132;16.848;2022-08-21T07:40:26;2.70;;;1.60;;
21424;SDS011;10873;51.132;16.848;2022-08-21T07:42:52;3.10;;;1.88;;
21424;SDS011;10873;51.132;16.848;2022-08-21T07:45:18;3.75;;;1.67;;
21424;SDS011;10873;51.132;16.848;2022-08-21T07:47:46;3.25;;;1.92;;
21424;SDS011;10873;51.132;16.848;2022-08-21T07:50:13;4.75;;;2.17;;
21424;SDS011;10873;51.132;16.848;2022-08-21T07:52:40;5.07;;;1.75;;
21424;SDS011;10873;51.132;16.848;2022-08-21T07:55:08;7.68;;;2.08;;
21424;SDS011;10873;51.132;16.848;2022-08-21T07:57:35;5.50;;;1.70;;
21424;SDS011;10873;51.132;16.848;2022-08-21T08:00:02;3.65;;;1.77;;
21424;SDS011;10873;51.132;16.848;2022-08-21T08:02:29;4.00;;;1.90;;
21424;SDS011;10873;51.132;16.848;2022-08-21T08:04:57;2.42;;;1.77;;
21424;SDS011;10873;51.132;16.848;2022-08-21T08:07:25;6.72;;;2.20;;
21424;SDS011;10873;51.132;16.848;2022-08-21T08:09:51;4.82;;;1.98;;
21424;SDS011;10873;51.132;16.848;2022-08-21T08:12:18;4.65;;;1.67;;
21424;SDS011;10873;51.132;16.848;2022-08-21T08:14:45;5.53;;;1.60;;
21424;SDS011;10873;51.132;16.848;2022-08-21T08:17:12;4.68;;;2.00;;
21424;SDS011;10873;51.132;16.848;2022-08-21T08:19:38;4.65;;;1.90;;
21424;SDS011;10873;51.132;16.848;2022-08-21T08:22:12;2.47;;;1.90;;
21424;SDS011;10873;51.132;16.848;2022-08-21T08:24:38;3.38;;;1.90;;
21424;SDS011;10873;51.132;16.848;2022-08-21T08:27:05;2.75;;;1.60;;
21424;SDS011;10873;51.132;16.848;2022-08-21T08:29:32;2.60;;;1.73;;
21424;SDS011;10873;51.132;16.848;2022-08-21T08:31:58;4.35;;;2.03;;
21424;SDS011;10873;51.132;16.848;2022-08-21T08:34:24;4.47;;;1.92;;
21424;SDS011;10873;51.132;16.848;2022-08-21T08:36:50;4.07;;;2.15;;
21424;SDS011;10873;51.132;16.848;2022-08-21T08:39:16;3.00;;;1.70;;
21424;SDS011;10873;51.132;16.848;2022-08-21T08:41:43;3.65;;;1.98;;
21424;SDS011;10873;51.132;16.848;2022-08-21T08:44:12;2.90;;;1.85;;
21424;SDS011;10873;51.132;16.848;2022-08-21T08:46:40;2.67;;;1.98;;
21424;SDS011;10873;51.132;16.848;2022-08-21T08:49:10;2.90;;;1.70;;
21424;SDS011;10873;51.132;16.848;2022-08-21T08:51:42;3.67;;;2.03;;
21424;SDS011;10873;51.132;16.848;2022-08-21T08:54:13;4.30;;;1.90;;
21424;SDS011;10873;51.132;16.848;2022-08-21T08:56:41;2.00;;;1.80;;
21424;SDS011;10873;51.132;16.848;2022-08-21T08:59:08;4.05;;;2.15;;
21424;SDS011;10873;51.132;16.848;2022-08-21T09:01:41;2.05;;;1.70;;
21424;SDS011;10873;51.132;16.848;2022-08-21T09:04:08;3.58;;;1.98;;
21424;SDS011;10873;51.132;16.848;2022-08-21T09:06:42;6.75;;;2.30;;
21424;SDS011;10873;51.132;16.848;2022-08-21T09:09:22;3.45;;;1.95;;
21424;SDS011;10873;51.132;16.848;2022-08-21T09:11:57;3.22;;;1.98;;
21424;SDS011;10873;51.132;16.848;2022-08-21T09:14:32;3.28;;;1.92;;
21424;SDS011;10873;51.132;16.848;2022-08-21T09:17:16;3.15;;;2.00;;
21424;SDS011;10873;51.132;16.848;2022-08-21T09:19:56;2.28;;;1.73;;
21424;SDS011;10873;51.132;16.848;2022-08-21T09:22:36;2.72;;;1.52;;
21424;SDS011;10873;51.132;16.848;2022-08-21T09:25:11;2.80;;;1.70;;
21424;SDS011;10873;51.132;16.848;2022-08-21T09:27:41;3.50;;;1.85;;
21424;SDS011;10873;51.132;16.848;2022-08-21T09:30:07;2.70;;;1.55;;
21424;SDS011;10873;51.132;16.848;2022-08-21T09:32:37;2.20;;;1.40;;
21424;SDS011;10873;51.132;16.848;2022-08-21T09:35:06;3.20;;;1.92;;
21424;SDS011;10873;51.132;16.848;2022-08-21T09:37:47;3.90;;;1.63;;
21424;SDS011;10873;51.132;16.848;2022-08-21T09:40:33;5.43;;;1.65;;
21424;SDS011;10873;51.132;16.848;2022-08-21T09:43:03;3.53;;;1.63;;
21424;SDS011;10873;51.132;16.848;2022-08-21T09:45:32;4.93;;;1.50;;
21424;SDS011;10873;51.132;16.848;2022-08-21T09:48:09;3.17;;;1.48;;
21424;SDS011;10873;51.132;16.848;2022-08-21T09:50:37;2.30;;;1.38;;
21424;SDS011;10873;51.132;16.848;2022-08-21T09:53:03;3.17;;;1.55;;
21424;SDS011;10873;51.132;16.848;2022-08-21T09:55:32;2.35;;;1.42;;
21424;SDS011;10873;51.132;16.848;2022-08-21T09:58:29;2.25;;;1.60;;
21424;SDS011;10873;51.132;16.848;2022-08-21T10:00:57;2.30;;;1.25;;
21424;SDS011;10873;51.132;16.848;2022-08-21T10:03:26;1.85;;;1.30;;
21424;SDS011;10873;51.132;16.848;2022-08-21T10:05:54;1.77;;;1.33;;
21424;SDS011;10873;51.132;16.848;2022-08-21T10:08:23;3.53;;;1.50;;
21424;SDS011;10873;51.132;16.848;2022-08-21T10:10:52;1.83;;;1.17;;
21424;SDS011;10873;51.132;16.848;2022-08-21T10:13:21;3.10;;;1.63;;
21424;SDS011;10873;51.132;16.848;2022-08-21T10:16:01;3.20;;;1.60;;
21424;SDS011;10873;51.132;16.848;2022-08-21T10:18:38;4.28;;;1.55;;
21424;SDS011;10873;51.132;16.848;2022-08-21T10:21:08;5.07;;;1.80;;
21424;SDS011;10873;51.132;16.848;2022-08-21T10:23:44;8.55;;;1.92;;
21424;SDS011;10873;51.132;16.848;2022-08-21T10:26:23;3.08;;;1.33;;
21424;SDS011;10873;51.132;16.848;2022-08-21T10:28:56;2.17;;;1.20;;
21424;SDS011;10873;51.132;16.848;2022-08-21T10:31:30;3.10;;;1.42;;
21424;SDS011;10873;51.132;16.848;2022-08-21T10:34:08;3.42;;;1.60;;
21424;SDS011;10873;51.132;16.848;2022-08-21T10:36:45;3.08;;;1.55;;
21424;SDS011;10873;51.132;16.848;2022-08-21T10:39:25;2.97;;;1.50;;
21424;SDS011;10873;51.132;16.848;2022-08-21T10:42:14;4.78;;;1.80;;
21424;SDS011;10873;51.132;16.848;2022-08-21T10:44:49;3.35;;;1.60;;
21424;SDS011;10873;51.132;16.848;2022-08-21T10:47:23;5.20;;;2.05;;
21424;SDS011;10873;51.132;16.848;2022-08-21T10:49:57;3.95;;;2.00;;
21424;SDS011;10873;51.132;16.848;2022-08-21T10:52:36;3.28;;;1.90;;
21424;SDS011;10873;51.132;16.848;2022-08-21T10:55:17;3.13;;;1.90;;
21424;SDS011;10873;51.132;16.848;2022-08-21T10:57:46;4.57;;;1.88;;
21424;SDS011;10873;51.132;16.848;2022-08-21T11:00:17;3.15;;;2.00;;
21424;SDS011;10873;51.132;16.848;2022-08-21T11:02:47;2.72;;;1.77;;
21424;SDS011;10873;51.132;16.848;2022-08-21T11:05:21;3.10;;;2.10;;
21424;SDS011;10873;51.132;16.848;2022-08-21T11:07:54;3.28;;;2.22;;
21424;SDS011;10873;51.132;16.848;2022-08-21T11:10:24;4.32;;;2.10;;
21424;SDS011;10873;51.132;16.848;2022-08-21T11:12:54;4.03;;;2.10;;
21424;SDS011;10873;51.132;16.848;2022-08-21T11:15:26;4.65;;;2.30;;
21424;SDS011;10873;51.132;16.848;2022-08-21T11:18:00;3.55;;;1.98;;
21424;SDS011;10873;51.132;16.848;2022-08-21T11:20:38;3.17;;;2.15;;
21424;SDS011;10873;51.132;16.848;2022-08-21T11:23:11;3.72;;;2.20;;
21424;SDS011;10873;51.132;16.848;2022-08-21T11:25:44;4.65;;;2.13;;
21424;SDS011;10873;51.132;16.848;2022-08-21T11:28:15;2.08;;;1.50;;
21424;SDS011;10873;51.132;16.848;2022-08-21T11:30:49;4.32;;;1.90;;
21424;SDS011;10873;51.132;16.848;2022-08-21T11:33:28;4.70;;;2.03;;
21424;SDS011;10873;51.132;16.848;2022-08-21T11:36:07;5.30;;;1.80;;
21424;SDS011;10873;51.132;16.848;2022-08-21T11:38:39;3.03;;;1.70;;
21424;SDS011;10873;51.132;16.848;2022-08-21T11:41:11;3.30;;;1.85;;
21424;SDS011;10873;51.132;16.848;2022-08-21T11:43:46;2.80;;;1.80;;
21424;SDS011;10873;51.132;16.848;2022-08-21T11:46:19;2.63;;;1.58;;
21424;SDS011;10873;51.132;16.848;2022-08-21T11:48:56;4.28;;;1.70;;
21424;SDS011;10873;51.132;16.848;2022-08-21T11:51:33;3.00;;;1.70;;
21424;SDS011;10873;51.132;16.848;2022-08-21T11:54:07;5.25;;;1.90;;
21424;SDS011;10873;51.132;16.848;2022-08-21T11:56:41;2.95;;;1.63;;
21424;SDS011;10873;51.132;16.848;2022-08-21T11:59:13;5.18;;;2.13;;
21424;SDS011;10873;51.132;16.848;2022-08-21T12:01:46;3.67;;;1.77;;
21424;SDS011;10873;51.132;16.848;2022-08-21T12:04:17;3.63;;;1.75;;
21424;SDS011;10873;51.132;16.848;2022-08-21T12:07:10;2.92;;;1.63;;
21424;SDS011;10873;51.132;16.848;2022-08-21T12:09:38;3.38;;;1.80;;
21424;SDS011;10873;51.132;16.848;2022-08-21T12:12:05;4.03;;;1.80;;
21424;SDS011;10873;51.132;16.848;2022-08-21T12:14:37;3.35;;;2.10;;
21424;SDS011;10873;51.132;16.848;2022-08-21T12:17:06;4.85;;;1.98;;
21424;SDS011;10873;51.132;16.848;2022-08-21T12:19:34;3.65;;;2.08;;
21424;SDS011;10873;51.132;16.848;2022-08-21T12:22:07;3.92;;;2.00;;
21424;SDS011;10873;51.132;16.848;2022-08-21T12:24:37;3.65;;;1.83;;
21424;SDS011;10873;51.132;16.848;2022-08-21T12:27:13;3.72;;;1.92;;
21424;SDS011;10873;51.132;16.848;2022-08-21T12:29:55;3.58;;;2.13;;
21424;SDS011;10873;51.132;16.848;2022-08-21T12:32:25;6.25;;;2.15;;
21424;SDS011;10873;51.132;16.848;2022-08-21T12:34:53;4.78;;;2.17;;
21424;SDS011;10873;51.132;16.848;2022-08-21T12:37:26;6.05;;;2.47;;
21424;SDS011;10873;51.132;16.848;2022-08-21T12:40:00;2.90;;;1.92;;
21424;SDS011;10873;51.132;16.848;2022-08-21T12:42:30;2.42;;;2.00;;
21424;SDS011;10873;51.132;16.848;2022-08-21T12:45:04;3.35;;;2.20;;
21424;SDS011;10873;51.132;16.848;2022-08-21T12:47:43;4.20;;;2.30;;
21424;SDS011;10873;51.132;16.848;2022-08-21T12:50:19;5.93;;;2.28;;
21424;SDS011;10873;51.132;16.848;2022-08-21T12:52:51;4.03;;;2.22;;
21424;SDS011;10873;51.132;16.848;2022-08-21T12:55:26;4.57;;;2.30;;
21424;SDS011;10873;51.132;16.848;2022-08-21T12:57:54;4.05;;;2.20;;
21424;SDS011;10873;51.132;16.848;2022-08-21T13:00:20;3.60;;;2.03;;
21424;SDS011;10873;51.132;16.848;2022-08-21T13:02:49;3.75;;;2.13;;
21424;SDS011;10873;51.132;16.848;2022-08-21T13:05:19;6.00;;;2.03;;
21424;SDS011;10873;51.132;16.848;2022-08-21T13:07:54;3.58;;;1.90;;
21424;SDS011;10873;51.132;16.848;2022-08-21T13:10:24;4.20;;;2.28;;
21424;SDS011;10873;51.132;16.848;2022-08-21T13:12:54;2.70;;;2.03;;
21424;SDS011;10873;51.132;16.848;2022-08-21T13:15:22;4.50;;;2.13;;
21424;SDS011;10873;51.132;16.848;2022-08-21T13:17:53;4.18;;;2.20;;
21424;SDS011;10873;51.132;16.848;2022-08-21T13:20:20;5.18;;;2.30;;
21424;SDS011;10873;51.132;16.848;2022-08-21T13:22:47;2.95;;;1.90;;
21424;SDS011;10873;51.132;16.848;2022-08-21T13:25:16;2.83;;;2.17;;
21424;SDS011;10873;51.132;16.848;2022-08-21T13:27:45;3.35;;;1.90;;
21424;SDS011;10873;51.132;16.848;2022-08-21T13:30:24;3.92;;;2.30;;
21424;SDS011;10873;51.132;16.848;2022-08-21T13:32:51;3.75;;;2.35;;
21424;SDS011;10873;51.132;16.848;2022-08-21T13:35:21;4.00;;;2.35;;
21424;SDS011;10873;51.132;16.848;2022-08-21T13:37:51;5.97;;;2.25;;
21424;SDS011;10873;51.132;16.848;2022-08-21T13:40:20;3.83;;;2.25;;
21424;SDS011;10873;51.132;16.848;2022-08-21T13:42:50;5.78;;;2.53;;
21424;SDS011;10873;51.132;16.848;2022-08-21T13:45:18;4.35;;;2.45;;
21424;SDS011;10873;51.132;16.848;2022-08-21T13:47:49;3.65;;;2.50;;
21424;SDS011;10873;51.132;16.848;2022-08-21T13:50:18;3.15;;;2.45;;
21424;SDS011;10873;51.132;16.848;2022-08-21T13:52:47;3.65;;;2.35;;
21424;SDS011;10873;51.132;16.848;2022-08-21T13:55:33;3.92;;;2.30;;
21424;SDS011;10873;51.132;16.848;2022-08-21T13:58:06;4.53;;;2.15;;
21424;SDS011;10873;51.132;16.848;2022-08-21T14:00:35;5.18;;;2.50;;
21424;SDS011;10873;51.132;16.848;2022-08-21T14:03:10;4.00;;;2.40;;
21424;SDS011;10873;51.132;16.848;2022-08-21T14:05:43;3.10;;;2.35;;
21424;SDS011;10873;51.132;16.848;2022-08-21T14:08:13;3.75;;;2.60;;
21424;SDS011;10873;51.132;16.848;2022-08-21T14:13:57;5.15;;;2.00;;
21424;SDS011;10873;51.132;16.848;2022-08-21T14:16:41;8.15;;;2.47;;
21424;SDS011;10873;51.132;16.848;2022-08-21T14:19:11;4.72;;;2.60;;
21424;SDS011;10873;51.132;16.848;2022-08-21T14:21:45;2.75;;;2.00;;
21424;SDS011;10873;51.132;16.848;2022-08-21T14:24:12;5.85;;;2.35;;
21424;SDS011;10873;51.132;16.848;2022-08-21T14:26:44;4.57;;;2.33;;
21424;SDS011;10873;51.132;16.848;2022-08-21T14:29:14;5.53;;;2.35;;
21424;SDS011;10873;51.132;16.848;2022-08-21T14:31:42;4.22;;;2.53;;
21424;SDS011;10873;51.132;16.848;2022-08-21T14:34:09;5.82;;;2.47;;
21424;SDS011;10873;51.132;16.848;2022-08-21T14:36:37;3.78;;;2.10;;
21424;SDS011;10873;51.132;16.848;2022-08-21T14:39:03;5.45;;;2.30;;
21424;SDS011;10873;51.132;16.848;2022-08-21T14:41:30;5.95;;;2.30;;
21424;SDS011;10873;51.132;16.848;2022-08-21T14:43:56;4.20;;;2.35;;
21424;SDS011;10873;51.132;16.848;2022-08-21T14:46:26;4.28;;;2.30;;
21424;SDS011;10873;51.132;16.848;2022-08-21T14:48:53;3.78;;;2.42;;